Terminal Aerodrome Forecast
Issued by NWS

Home | Current Version | Previous Version | Text Only | Print | Product List | Glossary On
Versions: 1 2 3 4 5 6 7 8 9 10 11 12 13 14 15 16 17 18 19 20 21 22 23 24 25
173
FTUS45 KGJT 140527
TAFEGE
TAF
KEGE 140527Z 1406/1506 09003KT P6SM FEW120 OVC250
     FM141500 24008G15KT P6SM BKN070 OVC150
     FM142200 25015G30KT P6SM VCSH OVC070
     FM150200 24010KT 3SM -SN BR OVC025
      AMD LTD TO CLD VIS AND WIND TIL 141400=

USA.gov is the U.S. government's official web portal to all federal, state and local government web resources and services.